sensor_id;sensor_type;location;lat;lon;timestamp;temperature;humidity
21429;DHT22;10875;50.444;30.540;2022-07-09T00:02:02;18.90;99.90
21429;DHT22;10875;50.444;30.540;2022-07-09T00:04:28;18.90;99.90
21429;DHT22;10875;50.444;30.540;2022-07-09T00:06:53;18.90;99.90
21429;DHT22;10875;50.444;30.540;2022-07-09T00:09:19;18.90;99.90
21429;DHT22;10875;50.444;30.540;2022-07-09T00:11:44;18.90;99.90
21429;DHT22;10875;50.444;30.540;2022-07-09T00:14:10;18.90;99.90
21429;DHT22;10875;50.444;30.540;2022-07-09T00:16:35;18.90;99.90
21429;DHT22;10875;50.444;30.540;2022-07-09T00:19:01;18.90;99.90
21429;DHT22;10875;50.444;30.540;2022-07-09T00:21:26;18.90;99.90
21429;DHT22;10875;50.444;30.540;2022-07-09T00:23:52;18.90;99.90
21429;DHT22;10875;50.444;30.540;2022-07-09T00:26:17;18.90;99.90
21429;DHT22;10875;50.444;30.540;2022-07-09T00:28:44;18.90;99.90
21429;DHT22;10875;50.444;30.540;2022-07-09T00:31:09;18.90;99.90
21429;DHT22;10875;50.444;30.540;2022-07-09T00:33:35;18.80;99.90
21429;DHT22;10875;50.444;30.540;2022-07-09T00:36:00;18.80;99.90
21429;DHT22;10875;50.444;30.540;2022-07-09T00:38:26;18.80;99.90
21429;DHT22;10875;50.444;30.540;2022-07-09T00:40:51;18.90;99.90
21429;DHT22;10875;50.444;30.540;2022-07-09T00:43:17;18.80;99.90
21429;DHT22;10875;50.444;30.540;2022-07-09T00:45:44;18.80;99.90
21429;DHT22;10875;50.444;30.540;2022-07-09T00:48:09;18.70;99.90
21429;DHT22;10875;50.444;30.540;2022-07-09T00:50:35;18.80;99.90
21429;DHT22;10875;50.444;30.540;2022-07-09T00:53:01;18.90;99.90
21429;DHT22;10875;50.444;30.540;2022-07-09T00:55:26;18.90;99.90
21429;DHT22;10875;50.444;30.540;2022-07-09T00:57:52;18.90;99.90
21429;DHT22;10875;50.444;30.540;2022-07-09T01:00:17;18.90;99.90
21429;DHT22;10875;50.444;30.540;2022-07-09T01:02:44;18.90;99.90
21429;DHT22;10875;50.444;30.540;2022-07-09T01:05:10;19.00;99.90
21429;DHT22;10875;50.444;30.540;2022-07-09T01:07:35;18.80;99.90
21429;DHT22;10875;50.444;30.540;2022-07-09T01:10:01;18.90;99.90
21429;DHT22;10875;50.444;30.540;2022-07-09T01:12:26;18.90;99.90
21429;DHT22;10875;50.444;30.540;2022-07-09T01:14:52;18.90;99.90
21429;DHT22;10875;50.444;30.540;2022-07-09T01:17:17;18.90;99.90
21429;DHT22;10875;50.444;30.540;2022-07-09T01:19:43;18.90;99.90
21429;DHT22;10875;50.444;30.540;2022-07-09T01:22:08;18.90;99.90
21429;DHT22;10875;50.444;30.540;2022-07-09T01:24:34;18.90;99.90
21429;DHT22;10875;50.444;30.540;2022-07-09T01:27:00;18.90;99.90
21429;DHT22;10875;50.444;30.540;2022-07-09T01:29:25;18.90;99.90
21429;DHT22;10875;50.444;30.540;2022-07-09T01:31:52;18.90;99.90
21429;DHT22;10875;50.444;30.540;2022-07-09T01:34:17;19.00;99.90
21429;DHT22;10875;50.444;30.540;2022-07-09T01:36:43;19.00;99.90
21429;DHT22;10875;50.444;30.540;2022-07-09T01:39:09;19.10;99.90
21429;DHT22;10875;50.444;30.540;2022-07-09T01:41:34;19.10;99.90
21429;DHT22;10875;50.444;30.540;2022-07-09T01:44:00;19.10;99.90
21429;DHT22;10875;50.444;30.540;2022-07-09T01:46:25;19.10;99.90
21429;DHT22;10875;50.444;30.540;2022-07-09T01:48:51;19.10;99.90
21429;DHT22;10875;50.444;30.540;2022-07-09T01:51:16;19.20;99.90
21429;DHT22;10875;50.444;30.540;2022-07-09T01:53:42;19.20;99.90
21429;DHT22;10875;50.444;30.540;2022-07-09T01:56:08;19.20;99.90
21429;DHT22;10875;50.444;30.540;2022-07-09T01:58:34;19.20;99.90
21429;DHT22;10875;50.444;30.540;2022-07-09T02:01:00;19.20;99.90
21429;DHT22;10875;50.444;30.540;2022-07-09T02:03:25;19.20;99.90
21429;DHT22;10875;50.444;30.540;2022-07-09T02:05:51;19.20;99.90
21429;DHT22;10875;50.444;30.540;2022-07-09T02:08:16;19.20;99.90
21429;DHT22;10875;50.444;30.540;2022-07-09T02:10:42;19.20;99.90
21429;DHT22;10875;50.444;30.540;2022-07-09T02:13:07;19.20;99.90
21429;DHT22;10875;50.444;30.540;2022-07-09T02:15:33;19.20;99.90
21429;DHT22;10875;50.444;30.540;2022-07-09T02:17:58;19.20;99.90
21429;DHT22;10875;50.444;30.540;2022-07-09T02:20:24;19.20;99.90
21429;DHT22;10875;50.444;30.540;2022-07-09T02:22:50;19.20;99.90
21429;DHT22;10875;50.444;30.540;2022-07-09T02:25:15;19.20;99.90
21429;DHT22;10875;50.444;30.540;2022-07-09T02:27:41;19.20;99.90
21429;DHT22;10875;50.444;30.540;2022-07-09T02:30:06;19.30;99.90
21429;DHT22;10875;50.444;30.540;2022-07-09T02:32:32;19.30;99.90
21429;DHT22;10875;50.444;30.540;2022-07-09T02:34:58;19.30;99.90
21429;DHT22;10875;50.444;30.540;2022-07-09T02:37:23;19.30;99.90
21429;DHT22;10875;50.444;30.540;2022-07-09T02:39:48;19.30;99.90
21429;DHT22;10875;50.444;30.540;2022-07-09T02:42:14;19.40;99.90
21429;DHT22;10875;50.444;30.540;2022-07-09T02:44:39;19.50;99.90
21429;DHT22;10875;50.444;30.540;2022-07-09T02:47:08;19.50;99.90
21429;DHT22;10875;50.444;30.540;2022-07-09T02:49:34;19.50;99.90
21429;DHT22;10875;50.444;30.540;2022-07-09T02:51:59;19.50;99.90
21429;DHT22;10875;50.444;30.540;2022-07-09T02:54:27;19.50;99.90
21429;DHT22;10875;50.444;30.540;2022-07-09T02:56:52;19.50;99.90
21429;DHT22;10875;50.444;30.540;2022-07-09T02:59:18;19.40;99.90
21429;DHT22;10875;50.444;30.540;2022-07-09T03:01:43;19.40;99.90
21429;DHT22;10875;50.444;30.540;2022-07-09T03:04:09;19.40;99.90
21429;DHT22;10875;50.444;30.540;2022-07-09T03:06:34;19.30;99.90
21429;DHT22;10875;50.444;30.540;2022-07-09T03:09:00;19.30;99.90
21429;DHT22;10875;50.444;30.540;2022-07-09T03:11:25;19.20;99.90
21429;DHT22;10875;50.444;30.540;2022-07-09T03:13:51;19.20;99.90
21429;DHT22;10875;50.444;30.540;2022-07-09T03:16:17;19.20;99.90
21429;DHT22;10875;50.444;30.540;2022-07-09T03:18:42;19.20;99.90
21429;DHT22;10875;50.444;30.540;2022-07-09T03:21:08;19.20;99.90
21429;DHT22;10875;50.444;30.540;2022-07-09T03:23:37;19.20;99.90
21429;DHT22;10875;50.444;30.540;2022-07-09T03:26:05;19.20;99.90
21429;DHT22;10875;50.444;30.540;2022-07-09T03:28:31;19.20;99.90
21429;DHT22;10875;50.444;30.540;2022-07-09T03:30:57;19.20;99.90
21429;DHT22;10875;50.444;30.540;2022-07-09T03:33:22;19.20;99.90
21429;DHT22;10875;50.444;30.540;2022-07-09T03:35:48;19.20;99.90
21429;DHT22;10875;50.444;30.540;2022-07-09T03:38:13;19.10;99.90
21429;DHT22;10875;50.444;30.540;2022-07-09T03:40:39;19.10;99.90
21429;DHT22;10875;50.444;30.540;2022-07-09T03:43:04;19.10;99.90
21429;DHT22;10875;50.444;30.540;2022-07-09T03:45:30;19.10;99.90
21429;DHT22;10875;50.444;30.540;2022-07-09T03:47:55;19.10;99.90
21429;DHT22;10875;50.444;30.540;2022-07-09T03:50:21;19.00;99.90
21429;DHT22;10875;50.444;30.540;2022-07-09T03:52:46;19.00;99.90
21429;DHT22;10875;50.444;30.540;2022-07-09T03:55:12;19.00;99.90
21429;DHT22;10875;50.444;30.540;2022-07-09T03:57:37;19.00;99.90
21429;DHT22;10875;50.444;30.540;2022-07-09T04:00:04;18.90;99.90
21429;DHT22;10875;50.444;30.540;2022-07-09T04:02:30;18.90;99.90
21429;DHT22;10875;50.444;30.540;2022-07-09T04:04:55;19.00;99.90
21429;DHT22;10875;50.444;30.540;2022-07-09T04:07:22;18.90;99.90
21429;DHT22;10875;50.444;30.540;2022-07-09T04:09:48;19.00;99.90
21429;DHT22;10875;50.444;30.540;2022-07-09T04:12:13;19.00;99.90
21429;DHT22;10875;50.444;30.540;2022-07-09T04:14:38;19.00;99.90
21429;DHT22;10875;50.444;30.540;2022-07-09T04:17:04;19.10;99.90
21429;DHT22;10875;50.444;30.540;2022-07-09T04:19:31;18.60;99.90
21429;DHT22;10875;50.444;30.540;2022-07-09T04:21:57;19.10;99.90
21429;DHT22;10875;50.444;30.540;2022-07-09T04:24:22;19.10;99.90
21429;DHT22;10875;50.444;30.540;2022-07-09T04:26:47;19.10;99.90
21429;DHT22;10875;50.444;30.540;2022-07-09T04:29:13;19.10;99.90
21429;DHT22;10875;50.444;30.540;2022-07-09T04:31:38;19.10;99.90
21429;DHT22;10875;50.444;30.540;2022-07-09T04:34:04;19.20;99.90
21429;DHT22;10875;50.444;30.540;2022-07-09T04:36:29;19.20;99.90
21429;DHT22;10875;50.444;30.540;2022-07-09T04:38:56;19.20;99.90
21429;DHT22;10875;50.444;30.540;2022-07-09T04:41:22;19.10;99.90
21429;DHT22;10875;50.444;30.540;2022-07-09T04:43:47;19.10;99.90
21429;DHT22;10875;50.444;30.540;2022-07-09T04:46:13;19.20;99.90
21429;DHT22;10875;50.444;30.540;2022-07-09T04:48:39;19.20;99.90
21429;DHT22;10875;50.444;30.540;2022-07-09T04:51:04;19.20;99.90
21429;DHT22;10875;50.444;30.540;2022-07-09T04:53:30;19.20;99.90
21429;DHT22;10875;50.444;30.540;2022-07-09T04:55:56;19.20;99.90
21429;DHT22;10875;50.444;30.540;2022-07-09T04:58:22;19.20;99.90
21429;DHT22;10875;50.444;30.540;2022-07-09T05:00:47;19.30;99.90
21429;DHT22;10875;50.444;30.540;2022-07-09T05:03:13;19.30;99.90
21429;DHT22;10875;50.444;30.540;2022-07-09T05:05:38;19.30;99.90
21429;DHT22;10875;50.444;30.540;2022-07-09T05:08:04;19.30;99.90
21429;DHT22;10875;50.444;30.540;2022-07-09T05:10:29;19.30;99.90
21429;DHT22;10875;50.444;30.540;2022-07-09T05:12:54;19.40;99.90
21429;DHT22;10875;50.444;30.540;2022-07-09T05:15:20;19.30;99.90
21429;DHT22;10875;50.444;30.540;2022-07-09T05:17:46;19.30;99.90
21429;DHT22;10875;50.444;30.540;2022-07-09T05:20:11;19.40;99.90
21429;DHT22;10875;50.444;30.540;2022-07-09T05:22:37;19.40;99.90
21429;DHT22;10875;50.444;30.540;2022-07-09T05:25:03;19.40;99.90
21429;DHT22;10875;50.444;30.540;2022-07-09T05:27:29;19.30;99.90
21429;DHT22;10875;50.444;30.540;2022-07-09T05:29:55;19.30;99.90
21429;DHT22;10875;50.444;30.540;2022-07-09T05:32:20;19.30;99.90
21429;DHT22;10875;50.444;30.540;2022-07-09T05:34:46;19.40;99.90
21429;DHT22;10875;50.444;30.540;2022-07-09T05:37:11;19.30;99.90
21429;DHT22;10875;50.444;30.540;2022-07-09T05:39:37;19.20;99.90
21429;DHT22;10875;50.444;30.540;2022-07-09T05:42:03;19.20;99.90
21429;DHT22;10875;50.444;30.540;2022-07-09T05:44:28;19.20;99.90
21429;DHT22;10875;50.444;30.540;2022-07-09T05:46:54;19.20;99.90
21429;DHT22;10875;50.444;30.540;2022-07-09T05:49:19;19.10;99.90
21429;DHT22;10875;50.444;30.540;2022-07-09T05:51:45;19.00;99.90
21429;DHT22;10875;50.444;30.540;2022-07-09T05:54:10;19.00;99.90
21429;DHT22;10875;50.444;30.540;2022-07-09T05:56:36;18.90;99.90
21429;DHT22;10875;50.444;30.540;2022-07-09T05:59:04;18.80;99.90
21429;DHT22;10875;50.444;30.540;2022-07-09T06:01:30;18.70;99.90
21429;DHT22;10875;50.444;30.540;2022-07-09T06:03:55;18.70;99.90
21429;DHT22;10875;50.444;30.540;2022-07-09T06:06:21;18.60;99.90
21429;DHT22;10875;50.444;30.540;2022-07-09T06:08:47;18.50;99.90
21429;DHT22;10875;50.444;30.540;2022-07-09T06:11:13;18.40;99.90
21429;DHT22;10875;50.444;30.540;2022-07-09T06:13:38;18.30;99.90
21429;DHT22;10875;50.444;30.540;2022-07-09T06:16:04;18.30;99.90
21429;DHT22;10875;50.444;30.540;2022-07-09T06:18:30;18.20;99.90
21429;DHT22;10875;50.444;30.540;2022-07-09T06:20:55;18.20;99.90
21429;DHT22;10875;50.444;30.540;2022-07-09T06:23:21;18.10;99.90
21429;DHT22;10875;50.444;30.540;2022-07-09T06:25:46;18.20;99.90
21429;DHT22;10875;50.444;30.540;2022-07-09T06:28:12;18.00;99.90
21429;DHT22;10875;50.444;30.540;2022-07-09T06:30:37;18.00;99.90
21429;DHT22;10875;50.444;30.540;2022-07-09T06:33:03;17.90;99.90
21429;DHT22;10875;50.444;30.540;2022-07-09T06:35:29;18.00;99.90
21429;DHT22;10875;50.444;30.540;2022-07-09T06:37:54;18.00;99.90
21429;DHT22;10875;50.444;30.540;2022-07-09T06:40:20;18.00;99.90
21429;DHT22;10875;50.444;30.540;2022-07-09T06:42:45;18.00;99.90
21429;DHT22;10875;50.444;30.540;2022-07-09T06:45:11;18.00;99.90
21429;DHT22;10875;50.444;30.540;2022-07-09T06:47:36;18.00;99.90
21429;DHT22;10875;50.444;30.540;2022-07-09T06:50:02;18.00;99.90
21429;DHT22;10875;50.444;30.540;2022-07-09T06:52:27;18.00;99.90
21429;DHT22;10875;50.444;30.540;2022-07-09T06:54:53;18.00;99.90
21429;DHT22;10875;50.444;30.540;2022-07-09T06:57:18;18.00;99.90
21429;DHT22;10875;50.444;30.540;2022-07-09T06:59:44;18.00;99.90
21429;DHT22;10875;50.444;30.540;2022-07-09T07:02:13;17.90;99.90
21429;DHT22;10875;50.444;30.540;2022-07-09T07:04:40;17.90;99.90
21429;DHT22;10875;50.444;30.540;2022-07-09T07:07:06;18.00;99.90
21429;DHT22;10875;50.444;30.540;2022-07-09T07:09:31;17.90;99.90
21429;DHT22;10875;50.444;30.540;2022-07-09T07:11:57;17.90;99.90
21429;DHT22;10875;50.444;30.540;2022-07-09T07:14:22;18.00;99.90
21429;DHT22;10875;50.444;30.540;2022-07-09T07:16:48;18.00;99.90
21429;DHT22;10875;50.444;30.540;2022-07-09T07:19:13;18.00;99.90
21429;DHT22;10875;50.444;30.540;2022-07-09T07:21:39;18.00;99.90
21429;DHT22;10875;50.444;30.540;2022-07-09T07:24:05;18.10;99.90
21429;DHT22;10875;50.444;30.540;2022-07-09T07:26:31;18.00;99.90
21429;DHT22;10875;50.444;30.540;2022-07-09T07:28:56;18.00;99.90
21429;DHT22;10875;50.444;30.540;2022-07-09T07:31:23;18.00;99.90
21429;DHT22;10875;50.444;30.540;2022-07-09T07:33:48;18.00;99.90
21429;DHT22;10875;50.444;30.540;2022-07-09T07:36:14;17.90;99.90
21429;DHT22;10875;50.444;30.540;2022-07-09T07:38:40;17.90;99.90
21429;DHT22;10875;50.444;30.540;2022-07-09T07:41:05;17.90;99.90
21429;DHT22;10875;50.444;30.540;2022-07-09T07:43:31;17.70;99.90
21429;DHT22;10875;50.444;30.540;2022-07-09T07:45:57;17.80;99.90
21429;DHT22;10875;50.444;30.540;2022-07-09T07:48:22;17.80;99.90
21429;DHT22;10875;50.444;30.540;2022-07-09T07:50:48;17.80;99.90
21429;DHT22;10875;50.444;30.540;2022-07-09T07:53:13;17.80;99.90
21429;DHT22;10875;50.444;30.540;2022-07-09T07:55:39;17.80;99.90
21429;DHT22;10875;50.444;30.540;2022-07-09T07:58:04;17.80;99.90
21429;DHT22;10875;50.444;30.540;2022-07-09T08:00:31;17.80;99.90
21429;DHT22;10875;50.444;30.540;2022-07-09T08:02:56;17.80;99.90
21429;DHT22;10875;50.444;30.540;2022-07-09T08:05:22;17.80;99.90
21429;DHT22;10875;50.444;30.540;2022-07-09T08:07:47;17.80;99.90
21429;DHT22;10875;50.444;30.540;2022-07-09T08:10:13;17.90;99.90
21429;DHT22;10875;50.444;30.540;2022-07-09T08:12:38;17.90;99.90
21429;DHT22;10875;50.444;30.540;2022-07-09T08:15:04;17.90;99.90
21429;DHT22;10875;50.444;30.540;2022-07-09T08:17:29;17.90;99.90
21429;DHT22;10875;50.444;30.540;2022-07-09T08:19:55;17.90;99.90
21429;DHT22;10875;50.444;30.540;2022-07-09T08:22:21;17.90;99.90
21429;DHT22;10875;50.444;30.540;2022-07-09T08:24:46;17.90;99.90
21429;DHT22;10875;50.444;30.540;2022-07-09T08:27:12;17.90;99.90
21429;DHT22;10875;50.444;30.540;2022-07-09T08:29:37;17.90;99.90
21429;DHT22;10875;50.444;30.540;2022-07-09T08:32:03;17.90;99.90
21429;DHT22;10875;50.444;30.540;2022-07-09T08:34:29;17.90;99.90
21429;DHT22;10875;50.444;30.540;2022-07-09T08:36:55;17.90;99.90
21429;DHT22;10875;50.444;30.540;2022-07-09T08:39:20;18.00;99.90
21429;DHT22;10875;50.444;30.540;2022-07-09T08:41:46;17.90;99.90
21429;DHT22;10875;50.444;30.540;2022-07-09T08:44:12;18.10;99.90
21429;DHT22;10875;50.444;30.540;2022-07-09T08:46:38;18.10;99.90
21429;DHT22;10875;50.444;30.540;2022-07-09T08:49:04;18.10;99.90
21429;DHT22;10875;50.444;30.540;2022-07-09T08:51:31;18.10;99.90
21429;DHT22;10875;50.444;30.540;2022-07-09T08:53:56;18.10;99.90
21429;DHT22;10875;50.444;30.540;2022-07-09T08:56:23;18.10;99.90
21429;DHT22;10875;50.444;30.540;2022-07-09T08:58:48;18.10;99.90
21429;DHT22;10875;50.444;30.540;2022-07-09T09:01:14;18.10;99.90
21429;DHT22;10875;50.444;30.540;2022-07-09T09:03:41;18.20;99.90
21429;DHT22;10875;50.444;30.540;2022-07-09T09:06:07;18.20;99.90
21429;DHT22;10875;50.444;30.540;2022-07-09T09:08:34;18.30;99.90
21429;DHT22;10875;50.444;30.540;2022-07-09T09:11:01;18.30;99.90
21429;DHT22;10875;50.444;30.540;2022-07-09T09:13:26;18.40;99.90
21429;DHT22;10875;50.444;30.540;2022-07-09T09:16:07;18.40;99.90
21429;DHT22;10875;50.444;30.540;2022-07-09T09:18:34;18.40;99.90
21429;DHT22;10875;50.444;30.540;2022-07-09T09:21:06;18.40;99.90
21429;DHT22;10875;50.444;30.540;2022-07-09T09:24:05;18.40;99.90
21429;DHT22;10875;50.444;30.540;2022-07-09T09:26:25;18.40;99.90
21429;DHT22;10875;50.444;30.540;2022-07-09T09:28:52;18.40;99.90
21429;DHT22;10875;50.444;30.540;2022-07-09T09:31:27;18.40;99.90
21429;DHT22;10875;50.444;30.540;2022-07-09T09:33:54;18.50;99.90
21429;DHT22;10875;50.444;30.540;2022-07-09T09:36:25;18.50;99.90
21429;DHT22;10875;50.444;30.540;2022-07-09T09:38:51;18.50;99.90
21429;DHT22;10875;50.444;30.540;2022-07-09T09:41:24;18.50;99.90
21429;DHT22;10875;50.444;30.540;2022-07-09T09:43:49;18.50;99.90
21429;DHT22;10875;50.444;30.540;2022-07-09T09:46:17;18.60;99.90
21429;DHT22;10875;50.444;30.540;2022-07-09T09:48:43;18.50;99.90
21429;DHT22;10875;50.444;30.540;2022-07-09T09:51:09;18.50;99.90
21429;DHT22;10875;50.444;30.540;2022-07-09T09:53:35;18.50;99.90
21429;DHT22;10875;50.444;30.540;2022-07-09T09:56:04;18.60;99.90
21429;DHT22;10875;50.444;30.540;2022-07-09T09:58:29;18.50;99.90
21429;DHT22;10875;50.444;30.540;2022-07-09T10:00:55;18.50;99.90
21429;DHT22;10875;50.444;30.540;2022-07-09T10:03:21;18.50;99.90
21429;DHT22;10875;50.444;30.540;2022-07-09T10:05:47;18.50;99.90
21429;DHT22;10875;50.444;30.540;2022-07-09T10:08:13;18.50;99.90
21429;DHT22;10875;50.444;30.540;2022-07-09T10:10:38;18.60;99.90
21429;DHT22;10875;50.444;30.540;2022-07-09T10:13:21;18.50;99.90
21429;DHT22;10875;50.444;30.540;2022-07-09T10:15:49;18.60;99.90
21429;DHT22;10875;50.444;30.540;2022-07-09T10:18:18;18.60;99.90
21429;DHT22;10875;50.444;30.540;2022-07-09T10:20:44;18.50;99.90
21429;DHT22;10875;50.444;30.540;2022-07-09T10:23:22;18.60;99.90
21429;DHT22;10875;50.444;30.540;2022-07-09T10:25:49;18.50;99.90
21429;DHT22;10875;50.444;30.540;2022-07-09T10:28:19;18.60;99.90
21429;DHT22;10875;50.444;30.540;2022-07-09T10:30:44;18.50;99.90
21429;DHT22;10875;50.444;30.540;2022-07-09T10:33:11;18.60;99.90
21429;DHT22;10875;50.444;30.540;2022-07-09T10:38:06;18.60;99.90
21429;DHT22;10875;50.444;30.540;2022-07-09T10:40:42;18.50;99.90
21429;DHT22;10875;50.444;30.540;2022-07-09T10:43:07;18.60;99.90
21429;DHT22;10875;50.444;30.540;2022-07-09T10:45:36;18.60;99.90
21429;DHT22;10875;50.444;30.540;2022-07-09T10:48:03;18.60;99.90
21429;DHT22;10875;50.444;30.540;2022-07-09T10:50:30;18.60;99.90
21429;DHT22;10875;50.444;30.540;2022-07-09T10:52:55;18.60;99.90
21429;DHT22;10875;50.444;30.540;2022-07-09T10:55:27;18.60;99.90
21429;DHT22;10875;50.444;30.540;2022-07-09T10:57:53;18.60;99.90
21429;DHT22;10875;50.444;30.540;2022-07-09T11:00:20;18.60;99.90
21429;DHT22;10875;50.444;30.540;2022-07-09T11:05:20;18.60;99.90
21429;DHT22;10875;50.444;30.540;2022-07-09T11:08:05;18.60;99.90
21429;DHT22;10875;50.444;30.540;2022-07-09T11:10:32;18.70;99.90
21429;DHT22;10875;50.444;30.540;2022-07-09T11:12:59;18.80;99.90
21429;DHT22;10875;50.444;30.540;2022-07-09T11:15:27;18.80;99.90
21429;DHT22;10875;50.444;30.540;2022-07-09T11:18:03;18.80;99.90
21429;DHT22;10875;50.444;30.540;2022-07-09T11:20:30;18.80;99.90
21429;DHT22;10875;50.444;30.540;2022-07-09T11:22:55;18.70;99.90
21429;DHT22;10875;50.444;30.540;2022-07-09T11:25:28;18.80;99.90
21429;DHT22;10875;50.444;30.540;2022-07-09T11:27:57;18.80;99.90
21429;DHT22;10875;50.444;30.540;2022-07-09T11:30:23;18.80;99.90
21429;DHT22;10875;50.444;30.540;2022-07-09T11:32:49;18.80;99.90
21429;DHT22;10875;50.444;30.540;2022-07-09T11:35:24;18.80;99.90
21429;DHT22;10875;50.444;30.540;2022-07-09T11:37:50;18.90;99.90
21429;DHT22;10875;50.444;30.540;2022-07-09T11:40:16;18.90;99.90
21429;DHT22;10875;50.444;30.540;2022-07-09T11:42:45;18.90;99.90
21429;DHT22;10875;50.444;30.540;2022-07-09T11:45:11;18.90;99.90
21429;DHT22;10875;50.444;30.540;2022-07-09T11:47:37;18.90;99.90
21429;DHT22;10875;50.444;30.540;2022-07-09T11:50:14;18.90;99.90
21429;DHT22;10875;50.444;30.540;2022-07-09T11:52:44;18.90;99.90
21429;DHT22;10875;50.444;30.540;2022-07-09T11:55:18;18.90;99.90
21429;DHT22;10875;50.444;30.540;2022-07-09T11:57:55;18.90;99.90
21429;DHT22;10875;50.444;30.540;2022-07-09T12:00:24;18.80;99.90
21429;DHT22;10875;50.444;30.540;2022-07-09T12:02:50;18.80;99.90
21429;DHT22;10875;50.444;30.540;2022-07-09T12:05:37;18.80;99.90
21429;DHT22;10875;50.444;30.540;2022-07-09T12:08:04;18.80;99.90
21429;DHT22;10875;50.444;30.540;2022-07-09T12:10:31;18.80;99.90
21429;DHT22;10875;50.444;30.540;2022-07-09T12:12:58;18.80;99.90
21429;DHT22;10875;50.444;30.540;2022-07-09T12:15:24;18.80;99.90
21429;DHT22;10875;50.444;30.540;2022-07-09T12:17:57;18.80;99.90
21429;DHT22;10875;50.444;30.540;2022-07-09T12:20:23;18.80;99.90
21429;DHT22;10875;50.444;30.540;2022-07-09T12:22:49;18.80;99.90
21429;DHT22;10875;50.444;30.540;2022-07-09T12:25:15;18.80;99.90
21429;DHT22;10875;50.444;30.540;2022-07-09T12:27:40;18.80;99.90
21429;DHT22;10875;50.444;30.540;2022-07-09T12:30:06;18.70;99.90
21429;DHT22;10875;50.444;30.540;2022-07-09T12:32:33;18.70;99.90
21429;DHT22;10875;50.444;30.540;2022-07-09T12:34:58;18.70;99.90
21429;DHT22;10875;50.444;30.540;2022-07-09T12:37:24;18.70;99.90
21429;DHT22;10875;50.444;30.540;2022-07-09T12:39:49;18.80;99.90
21429;DHT22;10875;50.444;30.540;2022-07-09T12:42:15;18.80;99.90
21429;DHT22;10875;50.444;30.540;2022-07-09T12:44:40;18.80;99.90
21429;DHT22;10875;50.444;30.540;2022-07-09T12:47:06;18.80;99.90
21429;DHT22;10875;50.444;30.540;2022-07-09T12:49:31;18.80;99.90
21429;DHT22;10875;50.444;30.540;2022-07-09T12:51:57;18.70;99.90
21429;DHT22;10875;50.444;30.540;2022-07-09T12:54:22;18.80;99.90
21429;DHT22;10875;50.444;30.540;2022-07-09T12:56:48;18.80;99.90
21429;DHT22;10875;50.444;30.540;2022-07-09T12:59:18;18.80;99.90
21429;DHT22;10875;50.444;30.540;2022-07-09T13:01:44;18.80;99.90
21429;DHT22;10875;50.444;30.540;2022-07-09T13:04:10;18.80;99.90
21429;DHT22;10875;50.444;30.540;2022-07-09T13:06:35;18.90;99.90
21429;DHT22;10875;50.444;30.540;2022-07-09T13:09:02;18.90;99.90
21429;DHT22;10875;50.444;30.540;2022-07-09T13:11:28;18.90;99.90
21429;DHT22;10875;50.444;30.540;2022-07-09T13:13:53;18.90;99.90
21429;DHT22;10875;50.444;30.540;2022-07-09T13:16:19;18.90;99.90
21429;DHT22;10875;50.444;30.540;2022-07-09T13:18:44;18.90;99.90
21429;DHT22;10875;50.444;30.540;2022-07-09T13:21:10;18.90;99.90
21429;DHT22;10875;50.444;30.540;2022-07-09T13:23:36;18.90;99.90
21429;DHT22;10875;50.444;30.540;2022-07-09T13:26:02;18.90;99.90
21429;DHT22;10875;50.444;30.540;2022-07-09T13:28:27;19.00;99.90
21429;DHT22;10875;50.444;30.540;2022-07-09T13:30:53;19.00;99.90
21429;DHT22;10875;50.444;30.540;2022-07-09T13:33:18;19.00;99.90
21429;DHT22;10875;50.444;30.540;2022-07-09T13:35:44;19.00;99.90
21429;DHT22;10875;50.444;30.540;2022-07-09T13:38:10;19.00;99.90
21429;DHT22;10875;50.444;30.540;2022-07-09T13:40:35;19.00;99.90
21429;DHT22;10875;50.444;30.540;2022-07-09T13:43:01;19.00;99.90
21429;DHT22;10875;50.444;30.540;2022-07-09T13:45:27;19.00;99.90
21429;DHT22;10875;50.444;30.540;2022-07-09T13:47:53;19.00;99.90
21429;DHT22;10875;50.444;30.540;2022-07-09T13:50:19;19.00;99.90
21429;DHT22;10875;50.444;30.540;2022-07-09T13:52:44;19.00;99.90
21429;DHT22;10875;50.444;30.540;2022-07-09T13:55:10;19.00;99.90
21429;DHT22;10875;50.444;30.540;2022-07-09T13:57:35;19.10;99.90
21429;DHT22;10875;50.444;30.540;2022-07-09T14:00:01;19.10;99.90
21429;DHT22;10875;50.444;30.540;2022-07-09T14:02:26;19.00;99.90
21429;DHT22;10875;50.444;30.540;2022-07-09T14:04:53;19.10;99.90
21429;DHT22;10875;50.444;30.540;2022-07-09T14:07:19;19.10;99.90
21429;DHT22;10875;50.444;30.540;2022-07-09T14:09:45;19.00;99.90
21429;DHT22;10875;50.444;30.540;2022-07-09T14:12:10;19.00;99.90
21429;DHT22;10875;50.444;30.540;2022-07-09T14:14:36;19.00;99.90
21429;DHT22;10875;50.444;30.540;2022-07-09T14:17:01;19.00;99.90
21429;DHT22;10875;50.444;30.540;2022-07-09T14:19:27;19.00;99.90
21429;DHT22;10875;50.444;30.540;2022-07-09T14:21:52;19.00;99.90
21429;DHT22;10875;50.444;30.540;2022-07-09T14:24:18;19.10;99.90
21429;DHT22;10875;50.444;30.540;2022-07-09T14:26:43;19.00;99.90
21429;DHT22;10875;50.444;30.540;2022-07-09T14:29:11;19.00;99.90
21429;DHT22;10875;50.444;30.540;2022-07-09T14:31:36;19.20;99.90
21429;DHT22;10875;50.444;30.540;2022-07-09T14:34:02;19.10;99.90
21429;DHT22;10875;50.444;30.540;2022-07-09T14:36:27;19.10;99.90
21429;DHT22;10875;50.444;30.540;2022-07-09T14:38:53;19.10;99.90
21429;DHT22;10875;50.444;30.540;2022-07-09T14:41:18;19.10;99.90
21429;DHT22;10875;50.444;30.540;2022-07-09T14:43:44;19.00;99.90
21429;DHT22;10875;50.444;30.540;2022-07-09T14:46:09;19.10;99.90
21429;DHT22;10875;50.444;30.540;2022-07-09T14:48:35;19.00;99.90
21429;DHT22;10875;50.444;30.540;2022-07-09T14:51:00;19.10;99.90
21429;DHT22;10875;50.444;30.540;2022-07-09T14:53:26;19.10;99.90
21429;DHT22;10875;50.444;30.540;2022-07-09T14:55:52;19.00;99.90
21429;DHT22;10875;50.444;30.540;2022-07-09T14:58:17;19.00;99.90
21429;DHT22;10875;50.444;30.540;2022-07-09T15:00:43;19.00;99.90
21429;DHT22;10875;50.444;30.540;2022-07-09T15:03:09;19.00;99.90
21429;DHT22;10875;50.444;30.540;2022-07-09T15:05:34;18.90;99.90
21429;DHT22;10875;50.444;30.540;2022-07-09T15:08:00;19.00;99.90
21429;DHT22;10875;50.444;30.540;2022-07-09T15:10:26;19.00;99.90
21429;DHT22;10875;50.444;30.540;2022-07-09T15:12:51;19.00;99.90
21429;DHT22;10875;50.444;30.540;2022-07-09T15:15:17;19.10;99.90